sensor_id;sensor_type;location;lat;lon;timestamp;pressure;altitude;pressure_sealevel;temperature;humidity
66176;BME280;52977;44.816;20.538;2023-05-12T00:01:53;99591.13;;;12.64;80.44
66176;BME280;52977;44.816;20.538;2023-05-12T00:04:19;99561.41;;;12.41;79.14
66176;BME280;52977;44.816;20.538;2023-05-12T00:06:44;99599.00;;;12.65;79.54
66176;BME280;52977;44.816;20.538;2023-05-12T00:09:10;99586.91;;;12.67;79.75
66176;BME280;52977;44.816;20.538;2023-05-12T00:11:36;99543.38;;;12.40;78.85
66176;BME280;52977;44.816;20.538;2023-05-12T00:14:03;99580.16;;;12.52;78.03
66176;BME280;52977;44.816;20.538;2023-05-12T00:16:28;99555.47;;;12.39;79.08
66176;BME280;52977;44.816;20.538;2023-05-12T00:18:54;99588.03;;;12.53;79.59
66176;BME280;52977;44.816;20.538;2023-05-12T00:21:20;99583.97;;;12.38;79.54
66176;BME280;52977;44.816;20.538;2023-05-12T00:23:45;99546.31;;;12.23;79.71
66176;BME280;52977;44.816;20.538;2023-05-12T00:26:11;99602.06;;;12.52;79.76
66176;BME280;52977;44.816;20.538;2023-05-12T00:28:37;99592.94;;;12.60;79.84
66176;BME280;52977;44.816;20.538;2023-05-12T00:31:03;99587.25;;;12.65;79.52
66176;BME280;52977;44.816;20.538;2023-05-12T00:33:29;99577.53;;;12.55;79.78
66176;BME280;52977;44.816;20.538;2023-05-12T00:35:55;99553.78;;;12.47;79.28
66176;BME280;52977;44.816;20.538;2023-05-12T00:38:21;99543.94;;;12.46;79.00
66176;BME280;52977;44.816;20.538;2023-05-12T00:40:47;99498.84;;;12.19;78.38
66176;BME280;52977;44.816;20.538;2023-05-12T00:43:12;99481.59;;;12.06;78.57
66176;BME280;52977;44.816;20.538;2023-05-12T00:45:38;99560.38;;;12.34;79.11
66176;BME280;52977;44.816;20.538;2023-05-12T00:48:04;99584.28;;;12.58;78.09
66176;BME280;52977;44.816;20.538;2023-05-12T00:50:30;99589.69;;;12.45;78.33
66176;BME280;52977;44.816;20.538;2023-05-12T00:52:57;99572.78;;;12.31;78.54
66176;BME280;52977;44.816;20.538;2023-05-12T00:55:25;99553.03;;;12.25;78.63
66176;BME280;52977;44.816;20.538;2023-05-12T00:57:51;99602.06;;;12.64;78.13
66176;BME280;52977;44.816;20.538;2023-05-12T01:00:17;99602.06;;;12.64;78.01
66176;BME280;52977;44.816;20.538;2023-05-12T01:02:45;99609.16;;;12.65;77.75
66176;BME280;52977;44.816;20.538;2023-05-12T01:05:12;99616.19;;;12.54;79.51
66176;BME280;52977;44.816;20.538;2023-05-12T01:07:39;99595.59;;;12.69;78.48
66176;BME280;52977;44.816;20.538;2023-05-12T01:10:26;99600.25;;;12.68;78.00
66176;BME280;52977;44.816;20.538;2023-05-12T01:12:51;99565.50;;;12.35;77.64
66176;BME280;52977;44.816;20.538;2023-05-12T01:15:18;99587.69;;;12.55;76.66
66176;BME280;52977;44.816;20.538;2023-05-12T01:17:52;99561.03;;;12.30;77.11
66176;BME280;52977;44.816;20.538;2023-05-12T01:20:21;99574.69;;;12.52;76.32
66176;BME280;52977;44.816;20.538;2023-05-12T01:22:50;99604.81;;;12.64;76.70
66176;BME280;52977;44.816;20.538;2023-05-12T01:25:18;99599.47;;;12.68;76.61
66176;BME280;52977;44.816;20.538;2023-05-12T01:27:47;99590.31;;;12.63;76.40
66176;BME280;52977;44.816;20.538;2023-05-12T01:30:17;99604.81;;;12.64;77.15
66176;BME280;52977;44.816;20.538;2023-05-12T01:32:44;99594.09;;;12.59;77.21
66176;BME280;52977;44.816;20.538;2023-05-12T01:35:11;99600.38;;;12.72;76.59
66176;BME280;52977;44.816;20.538;2023-05-12T01:37:42;99614.13;;;12.84;76.41
66176;BME280;52977;44.816;20.538;2023-05-12T01:40:08;99578.09;;;12.61;76.08
66176;BME280;52977;44.816;20.538;2023-05-12T01:42:37;99603.91;;;12.72;75.69
66176;BME280;52977;44.816;20.538;2023-05-12T01:45:06;99605.53;;;12.73;76.34
66176;BME280;52977;44.816;20.538;2023-05-12T01:47:32;99613.94;;;12.68;76.55
66176;BME280;52977;44.816;20.538;2023-05-12T01:50:04;99610.31;;;12.76;76.51
66176;BME280;52977;44.816;20.538;2023-05-12T01:52:31;99609.41;;;12.72;76.54
66176;BME280;52977;44.816;20.538;2023-05-12T01:54:57;99615.78;;;12.76;76.66
66176;BME280;52977;44.816;20.538;2023-05-12T01:57:24;99598.19;;;12.65;76.51
66176;BME280;52977;44.816;20.538;2023-05-12T01:59:54;99565.16;;;12.37;76.62
66176;BME280;52977;44.816;20.538;2023-05-12T02:02:20;99597.22;;;12.48;76.83
66176;BME280;52977;44.816;20.538;2023-05-12T02:04:45;99604.50;;;12.78;77.00
66176;BME280;52977;44.816;20.538;2023-05-12T02:07:12;99594.69;;;12.64;76.93
66176;BME280;52977;44.816;20.538;2023-05-12T02:09:40;99612.44;;;12.58;77.71
66176;BME280;52977;44.816;20.538;2023-05-12T02:12:06;99553.09;;;12.17;77.23
66176;BME280;52977;44.816;20.538;2023-05-12T02:14:33;99610.88;;;12.70;77.22
66176;BME280;52977;44.816;20.538;2023-05-12T02:16:59;99580.22;;;12.43;76.99
66176;BME280;52977;44.816;20.538;2023-05-12T02:19:26;99591.94;;;12.64;76.71
66176;BME280;52977;44.816;20.538;2023-05-12T02:21:54;99609.88;;;12.74;76.87
66176;BME280;52977;44.816;20.538;2023-05-12T02:24:21;99608.59;;;12.72;76.93
66176;BME280;52977;44.816;20.538;2023-05-12T02:26:47;99613.84;;;12.64;77.51
66176;BME280;52977;44.816;20.538;2023-05-12T02:29:13;99605.19;;;12.41;78.25
66176;BME280;52977;44.816;20.538;2023-05-12T02:31:40;99588.38;;;12.52;77.76
66176;BME280;52977;44.816;20.538;2023-05-12T02:34:16;99610.53;;;12.59;77.86
66176;BME280;52977;44.816;20.538;2023-05-12T02:36:42;99609.28;;;12.69;77.23
66176;BME280;52977;44.816;20.538;2023-05-12T02:39:10;99616.59;;;12.64;78.01
66176;BME280;52977;44.816;20.538;2023-05-12T02:41:36;99618.94;;;12.54;77.61
66176;BME280;52977;44.816;20.538;2023-05-12T02:44:02;99581.59;;;12.37;77.73
66176;BME280;52977;44.816;20.538;2023-05-12T02:46:28;99583.50;;;12.36;77.68
66176;BME280;52977;44.816;20.538;2023-05-12T02:48:55;99623.63;;;12.53;78.14
66176;BME280;52977;44.816;20.538;2023-05-12T02:51:21;99619.47;;;12.47;77.74
66176;BME280;52977;44.816;20.538;2023-05-12T02:53:47;99573.41;;;12.16;77.43
66176;BME280;52977;44.816;20.538;2023-05-12T02:56:13;99615.06;;;12.55;77.32
66176;BME280;52977;44.816;20.538;2023-05-12T02:58:39;99594.94;;;12.38;77.00
66176;BME280;52977;44.816;20.538;2023-05-12T03:01:06;99615.19;;;12.58;77.44
66176;BME280;52977;44.816;20.538;2023-05-12T03:03:33;99621.34;;;12.55;77.70
66176;BME280;52977;44.816;20.538;2023-05-12T03:05:58;99611.16;;;12.43;78.04
66176;BME280;52977;44.816;20.538;2023-05-12T03:08:24;99513.28;;;11.86;77.47
66176;BME280;52977;44.816;20.538;2023-05-12T03:10:50;99577.44;;;12.30;77.03
66176;BME280;52977;44.816;20.538;2023-05-12T03:13:16;99581.28;;;12.17;76.46
66176;BME280;52977;44.816;20.538;2023-05-12T03:15:41;99619.13;;;12.48;76.84
66176;BME280;52977;44.816;20.538;2023-05-12T03:18:07;99565.59;;;12.05;76.24
66176;BME280;52977;44.816;20.538;2023-05-12T03:20:33;99629.09;;;12.53;75.68
66176;BME280;52977;44.816;20.538;2023-05-12T03:22:59;99591.69;;;12.24;75.50
66176;BME280;52977;44.816;20.538;2023-05-12T03:25:26;99541.19;;;12.00;75.52
66176;BME280;52977;44.816;20.538;2023-05-12T03:27:52;99632.03;;;12.48;75.72
66176;BME280;52977;44.816;20.538;2023-05-12T03:30:18;99628.16;;;12.49;75.95
66176;BME280;52977;44.816;20.538;2023-05-12T03:32:44;99592.81;;;12.23;75.57
66176;BME280;52977;44.816;20.538;2023-05-12T03:35:10;99581.78;;;12.31;74.92
66176;BME280;52977;44.816;20.538;2023-05-12T03:37:36;99595.34;;;12.28;74.99
66176;BME280;52977;44.816;20.538;2023-05-12T03:40:02;99610.44;;;12.34;74.97
66176;BME280;52977;44.816;20.538;2023-05-12T03:42:29;99591.41;;;12.17;75.13
66176;BME280;52977;44.816;20.538;2023-05-12T03:44:54;99598.56;;;12.30;75.28
66176;BME280;52977;44.816;20.538;2023-05-12T03:47:20;99630.22;;;12.52;75.39
66176;BME280;52977;44.816;20.538;2023-05-12T03:49:46;99638.94;;;12.67;74.95
66176;BME280;52977;44.816;20.538;2023-05-12T03:52:13;99594.72;;;12.43;74.56
66176;BME280;52977;44.816;20.538;2023-05-12T03:54:39;99551.19;;;12.17;74.59
66176;BME280;52977;44.816;20.538;2023-05-12T03:57:05;99645.38;;;12.83;74.19
66176;BME280;52977;44.816;20.538;2023-05-12T03:59:31;99638.84;;;12.75;73.98
66176;BME280;52977;44.816;20.538;2023-05-12T04:01:57;99614.72;;;12.56;74.11
66176;BME280;52977;44.816;20.538;2023-05-12T04:04:24;99642.41;;;12.76;74.47
66176;BME280;52977;44.816;20.538;2023-05-12T04:06:49;99612.53;;;12.50;74.27
66176;BME280;52977;44.816;20.538;2023-05-12T04:09:15;99661.81;;;12.83;73.94
66176;BME280;52977;44.816;20.538;2023-05-12T04:11:42;99612.91;;;12.60;74.10
66176;BME280;52977;44.816;20.538;2023-05-12T04:14:08;99613.47;;;12.54;74.52
66176;BME280;52977;44.816;20.538;2023-05-12T04:16:35;99609.59;;;12.55;74.07
66176;BME280;52977;44.816;20.538;2023-05-12T04:19:02;99625.78;;;12.26;74.25
66176;BME280;52977;44.816;20.538;2023-05-12T04:21:28;99644.06;;;12.35;74.92
66176;BME280;52977;44.816;20.538;2023-05-12T04:23:54;99676.78;;;12.52;75.27
66176;BME280;52977;44.816;20.538;2023-05-12T04:26:24;99643.53;;;12.41;75.32
66176;BME280;52977;44.816;20.538;2023-05-12T04:28:51;99629.91;;;12.33;75.35
66176;BME280;52977;44.816;20.538;2023-05-12T04:31:18;99633.25;;;12.38;75.30
66176;BME280;52977;44.816;20.538;2023-05-12T04:33:44;99685.16;;;12.68;75.46
66176;BME280;52977;44.816;20.538;2023-05-12T04:36:10;99677.66;;;12.77;74.78
66176;BME280;52977;44.816;20.538;2023-05-12T04:38:39;99689.00;;;12.88;74.48
66176;BME280;52977;44.816;20.538;2023-05-12T04:41:06;99690.19;;;12.99;73.75
66176;BME280;52977;44.816;20.538;2023-05-12T04:43:33;99692.28;;;12.81;74.25
66176;BME280;52977;44.816;20.538;2023-05-12T04:45:59;99693.63;;;12.75;74.60
66176;BME280;52977;44.816;20.538;2023-05-12T04:48:26;99695.22;;;12.76;74.56
66176;BME280;52977;44.816;20.538;2023-05-12T04:50:53;99688.38;;;12.70;75.50
66176;BME280;52977;44.816;20.538;2023-05-12T04:53:19;99660.47;;;12.35;75.31
66176;BME280;52977;44.816;20.538;2023-05-12T04:55:45;99685.44;;;12.54;74.98
66176;BME280;52977;44.816;20.538;2023-05-12T04:58:12;99665.63;;;12.57;74.78
66176;BME280;52977;44.816;20.538;2023-05-12T05:00:38;99674.19;;;12.68;74.72
66176;BME280;52977;44.816;20.538;2023-05-12T05:03:04;99645.66;;;12.36;75.84
66176;BME280;52977;44.816;20.538;2023-05-12T05:05:31;99686.13;;;12.51;75.83
66176;BME280;52977;44.816;20.538;2023-05-12T05:07:57;99696.00;;;12.64;75.86
66176;BME280;52977;44.816;20.538;2023-05-12T05:10:24;99699.00;;;12.51;75.85
66176;BME280;52977;44.816;20.538;2023-05-12T05:12:51;99644.94;;;12.26;75.77
66176;BME280;52977;44.816;20.538;2023-05-12T05:15:17;99694.22;;;12.47;75.99
66176;BME280;52977;44.816;20.538;2023-05-12T05:17:43;99710.06;;;12.54;75.53
66176;BME280;52977;44.816;20.538;2023-05-12T05:20:14;99692.72;;;12.50;75.97
66176;BME280;52977;44.816;20.538;2023-05-12T05:22:42;99696.53;;;12.58;75.72
66176;BME280;52977;44.816;20.538;2023-05-12T05:25:09;99698.13;;;12.59;75.96
66176;BME280;52977;44.816;20.538;2023-05-12T05:27:36;99633.69;;;12.28;74.89
66176;BME280;52977;44.816;20.538;2023-05-12T05:30:05;99684.69;;;12.66;75.64
66176;BME280;52977;44.816;20.538;2023-05-12T05:32:34;99638.84;;;12.21;75.88
66176;BME280;52977;44.816;20.538;2023-05-12T05:35:02;99662.78;;;12.33;75.91
66176;BME280;52977;44.816;20.538;2023-05-12T05:37:30;99701.66;;;12.59;75.60
66176;BME280;52977;44.816;20.538;2023-05-12T05:39:56;99673.84;;;12.36;75.78
66176;BME280;52977;44.816;20.538;2023-05-12T05:42:23;99694.84;;;12.65;74.74
66176;BME280;52977;44.816;20.538;2023-05-12T05:44:49;99704.66;;;12.67;75.94
66176;BME280;52977;44.816;20.538;2023-05-12T05:47:17;99650.06;;;12.49;75.27
66176;BME280;52977;44.816;20.538;2023-05-12T05:49:43;99706.41;;;12.71;75.08
66176;BME280;52977;44.816;20.538;2023-05-12T05:52:10;99715.88;;;12.53;75.32
66176;BME280;52977;44.816;20.538;2023-05-12T05:54:37;99691.50;;;12.60;75.09
66176;BME280;52977;44.816;20.538;2023-05-12T05:57:03;99709.38;;;12.45;75.96
66176;BME280;52977;44.816;20.538;2023-05-12T05:59:30;99697.06;;;12.30;76.63
66176;BME280;52977;44.816;20.538;2023-05-12T06:01:57;99697.16;;;12.42;76.87
66176;BME280;52977;44.816;20.538;2023-05-12T06:04:23;99692.34;;;12.18;78.48
66176;BME280;52977;44.816;20.538;2023-05-12T06:06:49;99727.66;;;12.53;79.35
66176;BME280;52977;44.816;20.538;2023-05-12T06:09:16;99714.97;;;12.48;81.82
66176;BME280;52977;44.816;20.538;2023-05-12T06:11:43;99674.31;;;12.17;82.08
66176;BME280;52977;44.816;20.538;2023-05-12T06:14:09;99666.78;;;12.35;83.13
66176;BME280;52977;44.816;20.538;2023-05-12T06:16:36;99702.09;;;12.49;82.22
66176;BME280;52977;44.816;20.538;2023-05-12T06:19:02;99702.69;;;12.55;81.13
66176;BME280;52977;44.816;20.538;2023-05-12T06:21:28;99742.81;;;12.72;81.51
66176;BME280;52977;44.816;20.538;2023-05-12T06:23:53;99721.63;;;12.39;79.36
66176;BME280;52977;44.816;20.538;2023-05-12T06:26:21;99756.25;;;12.64;79.93
66176;BME280;52977;44.816;20.538;2023-05-12T06:28:47;99701.34;;;12.19;80.65
66176;BME280;52977;44.816;20.538;2023-05-12T06:31:13;99721.84;;;12.34;79.15
66176;BME280;52977;44.816;20.538;2023-05-12T06:33:40;99760.25;;;12.67;79.23
66176;BME280;52977;44.816;20.538;2023-05-12T06:36:06;99717.84;;;12.31;77.19
66176;BME280;52977;44.816;20.538;2023-05-12T06:38:32;99754.94;;;12.20;78.20
66176;BME280;52977;44.816;20.538;2023-05-12T06:40:58;99773.88;;;12.55;78.32
66176;BME280;52977;44.816;20.538;2023-05-12T06:43:24;99708.44;;;12.20;78.45
66176;BME280;52977;44.816;20.538;2023-05-12T06:45:53;99778.34;;;12.59;78.79
66176;BME280;52977;44.816;20.538;2023-05-12T06:48:21;99733.84;;;12.41;77.81
66176;BME280;52977;44.816;20.538;2023-05-12T06:50:48;99792.28;;;12.88;76.47
66176;BME280;52977;44.816;20.538;2023-05-12T06:53:14;99790.97;;;12.94;74.17
66176;BME280;52977;44.816;20.538;2023-05-12T06:55:40;99793.81;;;12.97;73.80
66176;BME280;52977;44.816;20.538;2023-05-12T06:58:08;99713.75;;;12.37;74.97
66176;BME280;52977;44.816;20.538;2023-05-12T07:00:35;99733.53;;;12.43;75.48
66176;BME280;52977;44.816;20.538;2023-05-12T07:03:01;99789.56;;;12.45;79.64
66176;BME280;52977;44.816;20.538;2023-05-12T07:05:27;99783.47;;;12.40;80.32
66176;BME280;52977;44.816;20.538;2023-05-12T07:07:53;99792.41;;;12.28;83.51
66176;BME280;52977;44.816;20.538;2023-05-12T07:10:20;99766.34;;;12.22;82.44
66176;BME280;52977;44.816;20.538;2023-05-12T07:12:46;99758.81;;;12.19;82.71
66176;BME280;52977;44.816;20.538;2023-05-12T07:15:11;99782.00;;;12.42;82.26
66176;BME280;52977;44.816;20.538;2023-05-12T07:17:37;99781.84;;;12.18;84.08
66176;BME280;52977;44.816;20.538;2023-05-12T07:20:03;99702.19;;;11.51;85.18
66176;BME280;52977;44.816;20.538;2023-05-12T07:22:30;99808.53;;;12.21;84.61
66176;BME280;52977;44.816;20.538;2023-05-12T07:24:57;99814.50;;;12.23;84.63
66176;BME280;52977;44.816;20.538;2023-05-12T07:27:23;99749.72;;;11.67;86.17
66176;BME280;52977;44.816;20.538;2023-05-12T07:29:49;99823.53;;;12.14;88.41
66176;BME280;52977;44.816;20.538;2023-05-12T07:32:15;99809.88;;;12.14;88.70
66176;BME280;52977;44.816;20.538;2023-05-12T07:34:42;99817.75;;;12.16;88.52
66176;BME280;52977;44.816;20.538;2023-05-12T07:37:08;99794.13;;;12.11;89.29
66176;BME280;52977;44.816;20.538;2023-05-12T07:39:34;99824.78;;;12.26;89.27
66176;BME280;52977;44.816;20.538;2023-05-12T07:42:00;99821.97;;;12.05;91.84
66176;BME280;52977;44.816;20.538;2023-05-12T07:44:27;99787.72;;;11.90;91.96
66176;BME280;52977;44.816;20.538;2023-05-12T07:46:53;99789.06;;;11.84;95.46
66176;BME280;52977;44.816;20.538;2023-05-12T07:49:19;99823.72;;;12.09;94.91
66176;BME280;52977;44.816;20.538;2023-05-12T07:51:46;99816.47;;;12.13;94.62
66176;BME280;52977;44.816;20.538;2023-05-12T07:54:12;99818.69;;;12.20;93.55
66176;BME280;52977;44.816;20.538;2023-05-12T07:56:39;99813.72;;;12.13;91.66
66176;BME280;52977;44.816;20.538;2023-05-12T07:59:05;99809.78;;;11.93;94.79
66176;BME280;52977;44.816;20.538;2023-05-12T08:01:31;99811.38;;;12.03;94.75
66176;BME280;52977;44.816;20.538;2023-05-12T08:03:57;99796.44;;;11.92;94.28
66176;BME280;52977;44.816;20.538;2023-05-12T08:06:23;99807.19;;;11.97;94.28
66176;BME280;52977;44.816;20.538;2023-05-12T08:08:49;99788.03;;;11.97;92.83
66176;BME280;52977;44.816;20.538;2023-05-12T08:11:15;99830.34;;;12.38;92.05
66176;BME280;52977;44.816;20.538;2023-05-12T08:13:41;99845.31;;;12.41;90.40
66176;BME280;52977;44.816;20.538;2023-05-12T08:16:07;99802.38;;;11.94;92.89
66176;BME280;52977;44.816;20.538;2023-05-12T08:18:33;99846.00;;;12.29;93.22
66176;BME280;52977;44.816;20.538;2023-05-12T08:20:59;99839.63;;;12.16;94.46
66176;BME280;52977;44.816;20.538;2023-05-12T08:23:25;99856.94;;;11.99;98.86
66176;BME280;52977;44.816;20.538;2023-05-12T08:25:51;99842.75;;;11.97;98.67
66176;BME280;52977;44.816;20.538;2023-05-12T08:28:17;99830.97;;;12.14;96.08
66176;BME280;52977;44.816;20.538;2023-05-12T08:30:43;99862.81;;;12.19;97.67
66176;BME280;52977;44.816;20.538;2023-05-12T08:33:11;99857.56;;;12.35;96.44
66176;BME280;52977;44.816;20.538;2023-05-12T08:35:37;99859.03;;;12.32;96.78
66176;BME280;52977;44.816;20.538;2023-05-12T08:38:04;99818.91;;;12.06;94.78
66176;BME280;52977;44.816;20.538;2023-05-12T08:40:36;99819.69;;;12.16;94.70
66176;BME280;52977;44.816;20.538;2023-05-12T08:43:24;99858.66;;;12.42;93.58
66176;BME280;52977;44.816;20.538;2023-05-12T08:45:55;99802.34;;;12.03;94.13
66176;BME280;52977;44.816;20.538;2023-05-12T08:48:26;99781.94;;;12.00;92.38
66176;BME280;52977;44.816;20.538;2023-05-12T08:51:13;99810.59;;;12.54;89.68
66176;BME280;52977;44.816;20.538;2023-05-12T08:53:40;99854.56;;;12.78;90.01
66176;BME280;52977;44.816;20.538;2023-05-12T08:56:08;99839.34;;;12.69;89.73
66176;BME280;52977;44.816;20.538;2023-05-12T08:58:36;99792.94;;;12.21;90.59
66176;BME280;52977;44.816;20.538;2023-05-12T09:01:03;99808.53;;;12.21;92.56
66176;BME280;52977;44.816;20.538;2023-05-12T09:03:32;99836.06;;;12.24;92.90
66176;BME280;52977;44.816;20.538;2023-05-12T09:05:59;99834.66;;;12.09;92.90
66176;BME280;52977;44.816;20.538;2023-05-12T09:08:28;99786.94;;;11.89;92.50
66176;BME280;52977;44.816;20.538;2023-05-12T09:10:58;99779.50;;;11.60;91.88
66176;BME280;52977;44.816;20.538;2023-05-12T09:16:12;99752.41;;;11.76;96.13
66176;BME280;52977;44.816;20.538;2023-05-12T09:18:58;99725.69;;;11.43;96.36
66176;BME280;52977;44.816;20.538;2023-05-12T09:21:25;99736.31;;;11.36;100.00
66176;BME280;52977;44.816;20.538;2023-05-12T09:24:00;99677.44;;;11.00;100.00
66176;BME280;52977;44.816;20.538;2023-05-12T09:26:28;99717.34;;;11.69;100.00
66176;BME280;52977;44.816;20.538;2023-05-12T09:28:55;99719.28;;;12.07;100.00
66176;BME280;52977;44.816;20.538;2023-05-12T09:31:31;99669.09;;;11.43;98.72
66176;BME280;52977;44.816;20.538;2023-05-12T09:33:57;99689.38;;;12.23;95.35
66176;BME280;52977;44.816;20.538;2023-05-12T09:36:24;99647.75;;;11.96;96.42
66176;BME280;52977;44.816;20.538;2023-05-12T09:39:04;99622.94;;;12.02;92.97
66176;BME280;52977;44.816;20.538;2023-05-12T09:41:39;99672.50;;;12.42;91.13
66176;BME280;52977;44.816;20.538;2023-05-12T09:44:06;99655.56;;;12.28;91.68
66176;BME280;52977;44.816;20.538;2023-05-12T09:46:34;99683.97;;;12.57;91.31
66176;BME280;52977;44.816;20.538;2023-05-12T09:48:59;99634.13;;;12.30;91.83
66176;BME280;52977;44.816;20.538;2023-05-12T09:51:28;99709.47;;;12.48;89.75
66176;BME280;52977;44.816;20.538;2023-05-12T09:53:56;99672.03;;;12.40;89.40
66176;BME280;52977;44.816;20.538;2023-05-12T09:56:28;99710.91;;;12.34;88.69
66176;BME280;52977;44.816;20.538;2023-05-12T09:58:55;99644.34;;;12.21;87.71
66176;BME280;52977;44.816;20.538;2023-05-12T10:01:25;99701.44;;;12.31;85.37
66176;BME280;52977;44.816;20.538;2023-05-12T10:03:54;99717.25;;;12.25;85.25
66176;BME280;52977;44.816;20.538;2023-05-12T10:06:32;99727.91;;;12.18;84.56
66176;BME280;52977;44.816;20.538;2023-05-12T10:09:17;99684.09;;;11.97;83.32
66176;BME280;52977;44.816;20.538;2023-05-12T10:11:45;99713.22;;;12.23;83.36
66176;BME280;52977;44.816;20.538;2023-05-12T10:14:13;99666.38;;;12.03;81.15
66176;BME280;52977;44.816;20.538;2023-05-12T10:16:39;99744.13;;;12.44;81.67
66176;BME280;52977;44.816;20.538;2023-05-12T10:19:07;99691.59;;;12.09;83.65
66176;BME280;52977;44.816;20.538;2023-05-12T10:21:35;99755.47;;;12.76;83.39
66176;BME280;52977;44.816;20.538;2023-05-12T10:24:03;99727.72;;;12.44;82.59
66176;BME280;52977;44.816;20.538;2023-05-12T10:26:31;99776.81;;;12.50;82.88
66176;BME280;52977;44.816;20.538;2023-05-12T10:28:58;99706.03;;;12.39;83.63
66176;BME280;52977;44.816;20.538;2023-05-12T10:31:24;99690.13;;;12.33;81.99
66176;BME280;52977;44.816;20.538;2023-05-12T10:33:59;99770.94;;;12.81;82.11
66176;BME280;52977;44.816;20.538;2023-05-12T10:36:26;99757.84;;;12.87;82.17
66176;BME280;52977;44.816;20.538;2023-05-12T10:38:52;99670.75;;;12.17;83.13
66176;BME280;52977;44.816;20.538;2023-05-12T10:41:30;99729.75;;;12.90;80.84
66176;BME280;52977;44.816;20.538;2023-05-12T10:43:56;99781.19;;;13.05;81.93
66176;BME280;52977;44.816;20.538;2023-05-12T10:46:23;99751.03;;;13.05;81.03
66176;BME280;52977;44.816;20.538;2023-05-12T10:51:25;99760.53;;;13.08;82.67
66176;BME280;52977;44.816;20.538;2023-05-12T10:54:03;99740.81;;;12.93;80.42
66176;BME280;52977;44.816;20.538;2023-05-12T10:56:50;99766.72;;;13.38;79.94
66176;BME280;52977;44.816;20.538;2023-05-12T10:59:19;99773.25;;;13.25;79.74
66176;BME280;52977;44.816;20.538;2023-05-12T11:02:11;99727.34;;;13.22;79.25
66176;BME280;52977;44.816;20.538;2023-05-12T11:04:40;99768.91;;;13.57;76.37
66176;BME280;52977;44.816;20.538;2023-05-12T11:07:10;99752.19;;;13.50;75.97
66176;BME280;52977;44.816;20.538;2023-05-12T11:09:42;99723.16;;;13.03;78.00
66176;BME280;52977;44.816;20.538;2023-05-12T11:12:08;99789.66;;;13.46;77.87
66176;BME280;52977;44.816;20.538;2023-05-12T11:14:35;99729.16;;;13.18;75.96
66176;BME280;52977;44.816;20.538;2023-05-12T11:17:01;99795.50;;;13.44;75.71
66176;BME280;52977;44.816;20.538;2023-05-12T11:19:27;99796.53;;;13.40;75.76
66176;BME280;52977;44.816;20.538;2023-05-12T11:21:53;99762.09;;;13.30;75.46
66176;BME280;52977;44.816;20.538;2023-05-12T11:24:21;99735.63;;;13.01;75.15
66176;BME280;52977;44.816;20.538;2023-05-12T11:26:47;99788.16;;;13.36;75.43
66176;BME280;52977;44.816;20.538;2023-05-12T11:29:20;99804.03;;;13.09;76.65
66176;BME280;52977;44.816;20.538;2023-05-12T11:31:48;99799.75;;;13.21;75.79
66176;BME280;52977;44.816;20.538;2023-05-12T11:34:14;99805.09;;;13.38;75.18
66176;BME280;52977;44.816;20.538;2023-05-12T11:36:42;99795.69;;;13.39;73.43
66176;BME280;52977;44.816;20.538;2023-05-12T11:39:19;99802.94;;;13.23;73.29
66176;BME280;52977;44.816;20.538;2023-05-12T11:41:48;99793.13;;;13.22;72.24
66176;BME280;52977;44.816;20.538;2023-05-12T11:49:27;99808.88;;;13.25;73.96
66176;BME280;52977;44.816;20.538;2023-05-12T11:51:58;99807.28;;;13.24;73.74
66176;BME280;52977;44.816;20.538;2023-05-12T11:54:27;99808.06;;;13.45;73.04
66176;BME280;52977;44.816;20.538;2023-05-12T11:56:55;99807.75;;;13.59;72.97
66176;BME280;52977;44.816;20.538;2023-05-12T11:59:29;99802.06;;;13.77;71.85
66176;BME280;52977;44.816;20.538;2023-05-12T12:01:57;99793.13;;;13.55;72.33
66176;BME280;52977;44.816;20.538;2023-05-12T12:04:31;99736.06;;;13.36;72.25
66176;BME280;52977;44.816;20.538;2023-05-12T12:06:57;99767.09;;;13.28;71.94
66176;BME280;52977;44.816;20.538;2023-05-12T12:09:38;99802.34;;;13.50;72.78
66176;BME280;52977;44.816;20.538;2023-05-12T12:12:09;99787.41;;;13.48;72.85
66176;BME280;52977;44.816;20.538;2023-05-12T12:14:35;99792.31;;;13.55;73.03
66176;BME280;52977;44.816;20.538;2023-05-12T12:17:03;99729.16;;;13.18;73.11
66176;BME280;52977;44.816;20.538;2023-05-12T12:19:29;99792.56;;;13.62;73.27
66176;BME280;52977;44.816;20.538;2023-05-12T12:21:56;99790.84;;;13.70;72.37
66176;BME280;52977;44.816;20.538;2023-05-12T12:24:22;99810.41;;;13.80;72.75
66176;BME280;52977;44.816;20.538;2023-05-12T12:26:48;99797.38;;;13.90;72.17
66176;BME280;52977;44.816;20.538;2023-05-12T12:29:15;99764.75;;;13.39;71.86
66176;BME280;52977;44.816;20.538;2023-05-12T12:31:41;99801.06;;;13.81;71.25
66176;BME280;52977;44.816;20.538;2023-05-12T12:34:06;99800.25;;;13.81;72.74
66176;BME280;52977;44.816;20.538;2023-05-12T12:36:33;99758.72;;;13.70;70.83
66176;BME280;52977;44.816;20.538;2023-05-12T12:38:59;99804.00;;;14.13;70.79
66176;BME280;52977;44.816;20.538;2023-05-12T12:41:24;99792.22;;;13.63;73.30
66176;BME280;52977;44.816;20.538;2023-05-12T12:43:51;99808.59;;;13.72;72.76
66176;BME280;52977;44.816;20.538;2023-05-12T12:46:17;99797.31;;;13.40;72.05
66176;BME280;52977;44.816;20.538;2023-05-12T12:48:43;99803.75;;;13.57;71.94
66176;BME280;52977;44.816;20.538;2023-05-12T12:51:09;99808.69;;;13.76;72.20
66176;BME280;52977;44.816;20.538;2023-05-12T12:53:34;99779.94;;;13.36;72.29
66176;BME280;52977;44.816;20.538;2023-05-12T12:56:01;99788.31;;;13.52;72.22
66176;BME280;52977;44.816;20.538;2023-05-12T12:58:26;99780.94;;;13.31;72.07
66176;BME280;52977;44.816;20.538;2023-05-12T13:00:52;99816.34;;;13.70;70.97
66176;BME280;52977;44.816;20.538;2023-05-12T13:03:17;99824.81;;;13.65;71.14